sensor_id;sensor_type;location;lat;lon;timestamp;temperature;humidity
5226;DHT22;2632;51.666;7.146;2024-01-25T00:00:10;9.40;79.80
5226;DHT22;2632;51.666;7.146;2024-01-25T00:02:37;9.40;79.70
5226;DHT22;2632;51.666;7.146;2024-01-25T00:05:04;9.40;79.80
5226;DHT22;2632;51.666;7.146;2024-01-25T00:07:31;9.40;79.90
5226;DHT22;2632;51.666;7.146;2024-01-25T00:09:58;9.40;80.00
5226;DHT22;2632;51.666;7.146;2024-01-25T00:12:25;9.30;79.80
5226;DHT22;2632;51.666;7.146;2024-01-25T00:14:53;9.30;80.00
5226;DHT22;2632;51.666;7.146;2024-01-25T00:17:20;9.40;79.90
5226;DHT22;2632;51.666;7.146;2024-01-25T00:19:46;9.30;79.90
5226;DHT22;2632;51.666;7.146;2024-01-25T00:22:13;9.30;79.90
5226;DHT22;2632;51.666;7.146;2024-01-25T00:24:40;9.30;79.70
5226;DHT22;2632;51.666;7.146;2024-01-25T00:27:07;9.30;79.80
5226;DHT22;2632;51.666;7.146;2024-01-25T00:29:34;9.30;79.90
5226;DHT22;2632;51.666;7.146;2024-01-25T00:32:01;9.30;80.30
5226;DHT22;2632;51.666;7.146;2024-01-25T00:34:27;9.30;79.90
5226;DHT22;2632;51.666;7.146;2024-01-25T00:36:54;9.30;79.80
5226;DHT22;2632;51.666;7.146;2024-01-25T00:39:22;9.30;79.70
5226;DHT22;2632;51.666;7.146;2024-01-25T00:41:51;9.30;79.90
5226;DHT22;2632;51.666;7.146;2024-01-25T00:44:18;9.30;79.90
5226;DHT22;2632;51.666;7.146;2024-01-25T00:46:45;9.30;79.80
5226;DHT22;2632;51.666;7.146;2024-01-25T00:49:14;9.30;79.60
5226;DHT22;2632;51.666;7.146;2024-01-25T00:51:46;9.20;79.50
5226;DHT22;2632;51.666;7.146;2024-01-25T00:54:14;9.20;79.50
5226;DHT22;2632;51.666;7.146;2024-01-25T00:56:41;9.10;79.80
5226;DHT22;2632;51.666;7.146;2024-01-25T00:59:08;9.10;79.90
5226;DHT22;2632;51.666;7.146;2024-01-25T01:01:35;9.10;80.10
5226;DHT22;2632;51.666;7.146;2024-01-25T01:04:03;9.00;80.60
5226;DHT22;2632;51.666;7.146;2024-01-25T01:06:30;9.00;80.30
5226;DHT22;2632;51.666;7.146;2024-01-25T01:08:57;9.10;80.10
5226;DHT22;2632;51.666;7.146;2024-01-25T01:11:23;9.00;80.20
5226;DHT22;2632;51.666;7.146;2024-01-25T01:13:50;9.00;80.20
5226;DHT22;2632;51.666;7.146;2024-01-25T01:16:16;9.00;80.40
5226;DHT22;2632;51.666;7.146;2024-01-25T01:18:43;9.00;80.50
5226;DHT22;2632;51.666;7.146;2024-01-25T01:21:10;9.00;80.50
5226;DHT22;2632;51.666;7.146;2024-01-25T01:23:37;9.00;80.40
5226;DHT22;2632;51.666;7.146;2024-01-25T01:26:04;9.00;80.50
5226;DHT22;2632;51.666;7.146;2024-01-25T01:28:31;9.00;80.40
5226;DHT22;2632;51.666;7.146;2024-01-25T01:30:57;9.00;80.40
5226;DHT22;2632;51.666;7.146;2024-01-25T01:33:24;9.00;80.40
5226;DHT22;2632;51.666;7.146;2024-01-25T01:35:51;9.00;80.50
5226;DHT22;2632;51.666;7.146;2024-01-25T01:38:17;9.00;80.40
5226;DHT22;2632;51.666;7.146;2024-01-25T01:40:44;9.00;80.40
5226;DHT22;2632;51.666;7.146;2024-01-25T01:43:21;9.10;80.90
5226;DHT22;2632;51.666;7.146;2024-01-25T01:45:50;9.00;80.40
5226;DHT22;2632;51.666;7.146;2024-01-25T01:48:17;9.00;80.70
5226;DHT22;2632;51.666;7.146;2024-01-25T01:50:44;9.00;80.60
5226;DHT22;2632;51.666;7.146;2024-01-25T01:53:12;9.00;80.40
5226;DHT22;2632;51.666;7.146;2024-01-25T01:55:40;9.00;80.20
5226;DHT22;2632;51.666;7.146;2024-01-25T01:58:08;8.90;80.20
5226;DHT22;2632;51.666;7.146;2024-01-25T02:00:37;8.90;80.40
5226;DHT22;2632;51.666;7.146;2024-01-25T02:03:04;8.80;80.40
5226;DHT22;2632;51.666;7.146;2024-01-25T02:05:31;8.80;80.60
5226;DHT22;2632;51.666;7.146;2024-01-25T02:07:58;8.80;80.70
5226;DHT22;2632;51.666;7.146;2024-01-25T02:10:24;8.80;80.70
5226;DHT22;2632;51.666;7.146;2024-01-25T02:12:51;8.70;80.90
5226;DHT22;2632;51.666;7.146;2024-01-25T02:15:18;8.60;81.00
5226;DHT22;2632;51.666;7.146;2024-01-25T02:17:45;8.60;81.30
5226;DHT22;2632;51.666;7.146;2024-01-25T02:20:12;8.60;81.30
5226;DHT22;2632;51.666;7.146;2024-01-25T02:22:39;8.50;81.30
5226;DHT22;2632;51.666;7.146;2024-01-25T02:25:06;8.50;81.60
5226;DHT22;2632;51.666;7.146;2024-01-25T02:27:33;8.50;81.80
5226;DHT22;2632;51.666;7.146;2024-01-25T02:30:06;8.50;81.80
5226;DHT22;2632;51.666;7.146;2024-01-25T02:32:33;8.40;82.60
5226;DHT22;2632;51.666;7.146;2024-01-25T02:35:00;8.40;81.90
5226;DHT22;2632;51.666;7.146;2024-01-25T02:37:27;8.40;81.90
5226;DHT22;2632;51.666;7.146;2024-01-25T02:39:54;8.40;82.10
5226;DHT22;2632;51.666;7.146;2024-01-25T02:42:20;8.30;82.10
5226;DHT22;2632;51.666;7.146;2024-01-25T02:44:47;8.30;82.30
5226;DHT22;2632;51.666;7.146;2024-01-25T02:47:15;8.30;82.40
5226;DHT22;2632;51.666;7.146;2024-01-25T02:49:42;8.30;82.30
5226;DHT22;2632;51.666;7.146;2024-01-25T02:52:09;8.20;82.40
5226;DHT22;2632;51.666;7.146;2024-01-25T02:54:36;8.10;82.90
5226;DHT22;2632;51.666;7.146;2024-01-25T02:57:04;8.00;83.10
5226;DHT22;2632;51.666;7.146;2024-01-25T02:59:31;8.00;83.30
5226;DHT22;2632;51.666;7.146;2024-01-25T03:01:57;8.10;83.10
5226;DHT22;2632;51.666;7.146;2024-01-25T03:04:24;8.10;83.00
5226;DHT22;2632;51.666;7.146;2024-01-25T03:06:51;8.00;83.00
5226;DHT22;2632;51.666;7.146;2024-01-25T03:09:18;8.00;83.20
5226;DHT22;2632;51.666;7.146;2024-01-25T03:11:44;7.90;83.20
5226;DHT22;2632;51.666;7.146;2024-01-25T03:14:11;7.90;83.50
5226;DHT22;2632;51.666;7.146;2024-01-25T03:16:38;7.90;83.70
5226;DHT22;2632;51.666;7.146;2024-01-25T03:19:04;8.80;84.30
5226;DHT22;2632;51.666;7.146;2024-01-25T03:21:31;7.80;83.70
5226;DHT22;2632;51.666;7.146;2024-01-25T03:23:58;7.80;83.80
5226;DHT22;2632;51.666;7.146;2024-01-25T03:26:27;7.80;83.50
5226;DHT22;2632;51.666;7.146;2024-01-25T03:28:54;7.80;83.70
5226;DHT22;2632;51.666;7.146;2024-01-25T03:31:21;7.80;84.00
5226;DHT22;2632;51.666;7.146;2024-01-25T03:33:47;7.70;83.90
5226;DHT22;2632;51.666;7.146;2024-01-25T03:36:14;7.70;84.00
5226;DHT22;2632;51.666;7.146;2024-01-25T03:38:43;7.60;84.40
5226;DHT22;2632;51.666;7.146;2024-01-25T03:41:10;7.60;84.40
5226;DHT22;2632;51.666;7.146;2024-01-25T03:43:37;7.50;84.70
5226;DHT22;2632;51.666;7.146;2024-01-25T03:46:11;7.60;85.00
5226;DHT22;2632;51.666;7.146;2024-01-25T03:48:38;7.60;84.70
5226;DHT22;2632;51.666;7.146;2024-01-25T03:51:05;7.50;84.90
5226;DHT22;2632;51.666;7.146;2024-01-25T03:53:32;7.50;84.90
5226;DHT22;2632;51.666;7.146;2024-01-25T03:55:58;7.40;84.70
5226;DHT22;2632;51.666;7.146;2024-01-25T03:58:25;7.40;85.00
5226;DHT22;2632;51.666;7.146;2024-01-25T04:00:52;7.40;85.40
5226;DHT22;2632;51.666;7.146;2024-01-25T04:03:19;7.30;85.40
5226;DHT22;2632;51.666;7.146;2024-01-25T04:05:45;7.30;85.40
5226;DHT22;2632;51.666;7.146;2024-01-25T04:08:12;7.40;85.40
5226;DHT22;2632;51.666;7.146;2024-01-25T04:10:39;7.40;85.20
5226;DHT22;2632;51.666;7.146;2024-01-25T04:13:05;7.30;85.20
5226;DHT22;2632;51.666;7.146;2024-01-25T04:15:34;7.30;85.40
5226;DHT22;2632;51.666;7.146;2024-01-25T04:18:00;7.20;85.40
5226;DHT22;2632;51.666;7.146;2024-01-25T04:20:27;7.20;85.60
5226;DHT22;2632;51.666;7.146;2024-01-25T04:22:54;7.20;85.80
5226;DHT22;2632;51.666;7.146;2024-01-25T04:25:21;7.20;85.50
5226;DHT22;2632;51.666;7.146;2024-01-25T04:27:48;7.20;85.40
5226;DHT22;2632;51.666;7.146;2024-01-25T04:30:15;7.10;85.20
5226;DHT22;2632;51.666;7.146;2024-01-25T04:32:42;7.10;85.70
5226;DHT22;2632;51.666;7.146;2024-01-25T04:35:09;7.00;85.90
5226;DHT22;2632;51.666;7.146;2024-01-25T04:37:36;7.10;86.00
5226;DHT22;2632;51.666;7.146;2024-01-25T04:40:03;7.00;86.00
5226;DHT22;2632;51.666;7.146;2024-01-25T04:42:31;7.00;85.70
5226;DHT22;2632;51.666;7.146;2024-01-25T04:44:58;6.90;86.00
5226;DHT22;2632;51.666;7.146;2024-01-25T04:47:25;7.00;86.10
5226;DHT22;2632;51.666;7.146;2024-01-25T04:49:51;7.00;86.10
5226;DHT22;2632;51.666;7.146;2024-01-25T04:52:18;6.90;86.30
5226;DHT22;2632;51.666;7.146;2024-01-25T04:54:45;6.90;86.50
5226;DHT22;2632;51.666;7.146;2024-01-25T04:57:12;6.90;86.50
5226;DHT22;2632;51.666;7.146;2024-01-25T04:59:38;6.90;86.60
5226;DHT22;2632;51.666;7.146;2024-01-25T05:02:05;6.80;86.50
5226;DHT22;2632;51.666;7.146;2024-01-25T05:04:32;6.80;86.50
5226;DHT22;2632;51.666;7.146;2024-01-25T05:07:01;6.90;86.50
5226;DHT22;2632;51.666;7.146;2024-01-25T05:09:28;6.90;86.20
5226;DHT22;2632;51.666;7.146;2024-01-25T05:11:54;6.90;86.30
5226;DHT22;2632;51.666;7.146;2024-01-25T05:14:25;6.80;86.30
5226;DHT22;2632;51.666;7.146;2024-01-25T05:16:52;6.80;86.40
5226;DHT22;2632;51.666;7.146;2024-01-25T05:19:18;6.80;86.60
5226;DHT22;2632;51.666;7.146;2024-01-25T05:21:45;6.80;86.30
5226;DHT22;2632;51.666;7.146;2024-01-25T05:24:13;6.70;86.40
5226;DHT22;2632;51.666;7.146;2024-01-25T05:26:39;6.60;86.90
5226;DHT22;2632;51.666;7.146;2024-01-25T05:29:06;6.70;86.80
5226;DHT22;2632;51.666;7.146;2024-01-25T05:31:32;6.60;87.00
5226;DHT22;2632;51.666;7.146;2024-01-25T05:33:59;6.60;87.10
5226;DHT22;2632;51.666;7.146;2024-01-25T05:36:26;6.50;87.00
5226;DHT22;2632;51.666;7.146;2024-01-25T05:38:53;6.50;87.20
5226;DHT22;2632;51.666;7.146;2024-01-25T05:41:20;6.50;87.10
5226;DHT22;2632;51.666;7.146;2024-01-25T05:43:46;6.50;87.10
5226;DHT22;2632;51.666;7.146;2024-01-25T05:46:13;6.40;87.20
5226;DHT22;2632;51.666;7.146;2024-01-25T05:48:40;6.40;87.50
5226;DHT22;2632;51.666;7.146;2024-01-25T05:51:07;6.40;87.10
5226;DHT22;2632;51.666;7.146;2024-01-25T05:53:33;6.30;87.50
5226;DHT22;2632;51.666;7.146;2024-01-25T05:56:00;6.40;88.10
5226;DHT22;2632;51.666;7.146;2024-01-25T05:58:26;6.30;87.50
5226;DHT22;2632;51.666;7.146;2024-01-25T06:00:53;6.00;87.60
5226;DHT22;2632;51.666;7.146;2024-01-25T06:03:20;5.90;87.90
5226;DHT22;2632;51.666;7.146;2024-01-25T06:05:47;5.90;87.30
5226;DHT22;2632;51.666;7.146;2024-01-25T06:08:14;5.80;88.10
5226;DHT22;2632;51.666;7.146;2024-01-25T06:10:40;5.90;88.10
5226;DHT22;2632;51.666;7.146;2024-01-25T06:13:07;5.80;88.30
5226;DHT22;2632;51.666;7.146;2024-01-25T06:15:34;5.80;87.60
5226;DHT22;2632;51.666;7.146;2024-01-25T06:18:01;5.70;88.50
5226;DHT22;2632;51.666;7.146;2024-01-25T06:20:27;5.60;87.60
5226;DHT22;2632;51.666;7.146;2024-01-25T06:22:54;5.50;88.80
5226;DHT22;2632;51.666;7.146;2024-01-25T06:25:21;5.40;88.60
5226;DHT22;2632;51.666;7.146;2024-01-25T06:27:48;5.40;88.50
5226;DHT22;2632;51.666;7.146;2024-01-25T06:30:15;5.40;88.20
5226;DHT22;2632;51.666;7.146;2024-01-25T06:32:42;5.50;88.30
5226;DHT22;2632;51.666;7.146;2024-01-25T06:35:09;5.40;87.80
5226;DHT22;2632;51.666;7.146;2024-01-25T06:37:36;5.30;88.40
5226;DHT22;2632;51.666;7.146;2024-01-25T06:40:03;5.30;88.20
5226;DHT22;2632;51.666;7.146;2024-01-25T06:42:31;5.40;88.80
5226;DHT22;2632;51.666;7.146;2024-01-25T06:44:58;5.50;88.70
5226;DHT22;2632;51.666;7.146;2024-01-25T06:47:24;5.70;89.70
5226;DHT22;2632;51.666;7.146;2024-01-25T06:49:51;5.70;89.20
5226;DHT22;2632;51.666;7.146;2024-01-25T06:52:18;5.70;89.40
5226;DHT22;2632;51.666;7.146;2024-01-25T06:54:46;5.90;89.00
5226;DHT22;2632;51.666;7.146;2024-01-25T06:57:12;5.90;89.30
5226;DHT22;2632;51.666;7.146;2024-01-25T06:59:40;6.00;89.40
5226;DHT22;2632;51.666;7.146;2024-01-25T07:02:07;6.00;88.90
5226;DHT22;2632;51.666;7.146;2024-01-25T07:04:35;6.00;88.50
5226;DHT22;2632;51.666;7.146;2024-01-25T07:07:02;6.10;88.80
5226;DHT22;2632;51.666;7.146;2024-01-25T07:09:29;6.10;89.00
5226;DHT22;2632;51.666;7.146;2024-01-25T07:11:56;6.20;88.80
5226;DHT22;2632;51.666;7.146;2024-01-25T07:14:22;6.20;88.90
5226;DHT22;2632;51.666;7.146;2024-01-25T07:16:49;6.20;88.60
5226;DHT22;2632;51.666;7.146;2024-01-25T07:19:16;6.20;88.50
5226;DHT22;2632;51.666;7.146;2024-01-25T07:21:43;6.20;88.30
5226;DHT22;2632;51.666;7.146;2024-01-25T07:24:12;6.20;88.80
5226;DHT22;2632;51.666;7.146;2024-01-25T07:26:38;6.30;88.80
5226;DHT22;2632;51.666;7.146;2024-01-25T07:29:05;6.30;88.80
5226;DHT22;2632;51.666;7.146;2024-01-25T07:31:32;6.30;88.30
5226;DHT22;2632;51.666;7.146;2024-01-25T07:33:58;6.20;88.60
5226;DHT22;2632;51.666;7.146;2024-01-25T07:36:25;6.20;88.60
5226;DHT22;2632;51.666;7.146;2024-01-25T07:38:52;6.30;88.60
5226;DHT22;2632;51.666;7.146;2024-01-25T07:41:18;6.40;88.30
5226;DHT22;2632;51.666;7.146;2024-01-25T07:43:46;6.40;88.20
5226;DHT22;2632;51.666;7.146;2024-01-25T07:46:13;6.40;88.30
5226;DHT22;2632;51.666;7.146;2024-01-25T07:48:41;6.40;88.00
5226;DHT22;2632;51.666;7.146;2024-01-25T07:51:12;6.40;88.00
5226;DHT22;2632;51.666;7.146;2024-01-25T07:53:42;6.30;88.00
5226;DHT22;2632;51.666;7.146;2024-01-25T07:56:09;6.40;88.00
5226;DHT22;2632;51.666;7.146;2024-01-25T07:58:37;6.50;88.00
5226;DHT22;2632;51.666;7.146;2024-01-25T08:01:04;6.50;87.70
5226;DHT22;2632;51.666;7.146;2024-01-25T08:03:32;6.40;88.00
5226;DHT22;2632;51.666;7.146;2024-01-25T08:06:01;6.40;88.10
5226;DHT22;2632;51.666;7.146;2024-01-25T08:08:29;6.50;88.20
5226;DHT22;2632;51.666;7.146;2024-01-25T08:10:56;6.50;88.60
5226;DHT22;2632;51.666;7.146;2024-01-25T08:13:22;6.60;87.60
5226;DHT22;2632;51.666;7.146;2024-01-25T08:15:50;6.60;87.60
5226;DHT22;2632;51.666;7.146;2024-01-25T08:18:17;6.60;87.80
5226;DHT22;2632;51.666;7.146;2024-01-25T08:20:45;6.70;87.40
5226;DHT22;2632;51.666;7.146;2024-01-25T08:23:12;6.70;87.80
5226;DHT22;2632;51.666;7.146;2024-01-25T08:25:40;6.70;87.70
5226;DHT22;2632;51.666;7.146;2024-01-25T08:28:07;6.80;87.80
5226;DHT22;2632;51.666;7.146;2024-01-25T08:30:34;6.80;87.60
5226;DHT22;2632;51.666;7.146;2024-01-25T08:33:01;6.90;87.30
5226;DHT22;2632;51.666;7.146;2024-01-25T08:35:29;6.90;87.30
5226;DHT22;2632;51.666;7.146;2024-01-25T08:37:57;6.90;87.60
5226;DHT22;2632;51.666;7.146;2024-01-25T08:40:24;7.00;87.30
5226;DHT22;2632;51.666;7.146;2024-01-25T08:42:53;7.00;87.10
5226;DHT22;2632;51.666;7.146;2024-01-25T08:45:19;7.10;87.00
5226;DHT22;2632;51.666;7.146;2024-01-25T08:47:48;7.10;86.90
5226;DHT22;2632;51.666;7.146;2024-01-25T08:50:16;7.20;86.50
5226;DHT22;2632;51.666;7.146;2024-01-25T08:52:43;7.30;86.20
5226;DHT22;2632;51.666;7.146;2024-01-25T08:55:10;7.30;86.20
5226;DHT22;2632;51.666;7.146;2024-01-25T08:57:37;7.30;86.10
5226;DHT22;2632;51.666;7.146;2024-01-25T09:00:05;7.40;86.10
5226;DHT22;2632;51.666;7.146;2024-01-25T09:02:37;7.50;85.70
5226;DHT22;2632;51.666;7.146;2024-01-25T09:05:08;7.60;85.50
5226;DHT22;2632;51.666;7.146;2024-01-25T09:07:35;7.60;85.40
5226;DHT22;2632;51.666;7.146;2024-01-25T09:10:02;7.70;85.00
5226;DHT22;2632;51.666;7.146;2024-01-25T09:12:31;7.80;84.70
5226;DHT22;2632;51.666;7.146;2024-01-25T09:14:57;7.90;84.00
5226;DHT22;2632;51.666;7.146;2024-01-25T09:17:24;8.00;84.60
5226;DHT22;2632;51.666;7.146;2024-01-25T09:19:51;8.00;84.00
5226;DHT22;2632;51.666;7.146;2024-01-25T09:22:19;8.10;83.60
5226;DHT22;2632;51.666;7.146;2024-01-25T09:24:46;8.00;83.30
5226;DHT22;2632;51.666;7.146;2024-01-25T09:27:13;8.10;83.80
5226;DHT22;2632;51.666;7.146;2024-01-25T09:29:41;8.20;83.20
5226;DHT22;2632;51.666;7.146;2024-01-25T09:32:08;8.30;82.80
5226;DHT22;2632;51.666;7.146;2024-01-25T09:34:36;8.30;83.10
5226;DHT22;2632;51.666;7.146;2024-01-25T09:37:05;8.40;83.10
5226;DHT22;2632;51.666;7.146;2024-01-25T09:39:32;8.50;82.60
5226;DHT22;2632;51.666;7.146;2024-01-25T09:41:59;8.60;81.70
5226;DHT22;2632;51.666;7.146;2024-01-25T09:44:26;8.60;81.60
5226;DHT22;2632;51.666;7.146;2024-01-25T09:46:53;8.70;81.50
5226;DHT22;2632;51.666;7.146;2024-01-25T09:49:20;8.80;81.00
5226;DHT22;2632;51.666;7.146;2024-01-25T09:51:47;8.80;80.90
5226;DHT22;2632;51.666;7.146;2024-01-25T09:54:16;8.90;80.90
5226;DHT22;2632;51.666;7.146;2024-01-25T09:56:44;8.90;80.60
5226;DHT22;2632;51.666;7.146;2024-01-25T09:59:10;9.00;80.30
5226;DHT22;2632;51.666;7.146;2024-01-25T10:01:38;9.00;79.80
5226;DHT22;2632;51.666;7.146;2024-01-25T10:04:08;9.10;80.10
5226;DHT22;2632;51.666;7.146;2024-01-25T10:06:35;9.10;79.50
5226;DHT22;2632;51.666;7.146;2024-01-25T10:09:04;9.20;79.40
5226;DHT22;2632;51.666;7.146;2024-01-25T10:11:30;9.40;78.90
5226;DHT22;2632;51.666;7.146;2024-01-25T10:14:06;9.40;79.00
5226;DHT22;2632;51.666;7.146;2024-01-25T10:16:34;9.40;78.20
5226;DHT22;2632;51.666;7.146;2024-01-25T10:19:04;9.50;78.30
5226;DHT22;2632;51.666;7.146;2024-01-25T10:21:35;9.60;77.80
5226;DHT22;2632;51.666;7.146;2024-01-25T10:24:05;9.60;77.20
5226;DHT22;2632;51.666;7.146;2024-01-25T10:26:34;9.70;77.50
5226;DHT22;2632;51.666;7.146;2024-01-25T10:29:01;9.70;77.30
5226;DHT22;2632;51.666;7.146;2024-01-25T10:31:30;9.80;76.90
5226;DHT22;2632;51.666;7.146;2024-01-25T10:33:59;9.80;76.70
5226;DHT22;2632;51.666;7.146;2024-01-25T10:36:27;9.90;76.70
5226;DHT22;2632;51.666;7.146;2024-01-25T10:38:54;9.90;76.80
5226;DHT22;2632;51.666;7.146;2024-01-25T10:41:23;9.80;76.40
5226;DHT22;2632;51.666;7.146;2024-01-25T10:43:52;9.80;76.40
5226;DHT22;2632;51.666;7.146;2024-01-25T10:46:19;9.70;76.00
5226;DHT22;2632;51.666;7.146;2024-01-25T10:48:47;9.80;76.50
5226;DHT22;2632;51.666;7.146;2024-01-25T10:51:14;9.80;76.10
5226;DHT22;2632;51.666;7.146;2024-01-25T10:53:45;9.90;76.20
5226;DHT22;2632;51.666;7.146;2024-01-25T10:56:12;9.90;75.80
5226;DHT22;2632;51.666;7.146;2024-01-25T10:58:41;9.80;76.30
5226;DHT22;2632;51.666;7.146;2024-01-25T11:01:09;9.70;76.50
5226;DHT22;2632;51.666;7.146;2024-01-25T11:03:42;9.60;77.00
5226;DHT22;2632;51.666;7.146;2024-01-25T11:06:13;9.50;77.10
5226;DHT22;2632;51.666;7.146;2024-01-25T11:08:40;9.50;77.60
5226;DHT22;2632;51.666;7.146;2024-01-25T11:11:11;9.50;77.20
5226;DHT22;2632;51.666;7.146;2024-01-25T11:13:41;9.70;77.00
5226;DHT22;2632;51.666;7.146;2024-01-25T11:16:31;9.80;76.70
5226;DHT22;2632;51.666;7.146;2024-01-25T11:18:59;9.80;76.50
5226;DHT22;2632;51.666;7.146;2024-01-25T11:21:43;10.00;76.20
5226;DHT22;2632;51.666;7.146;2024-01-25T11:24:23;10.30;75.80
5226;DHT22;2632;51.666;7.146;2024-01-25T11:26:50;10.70;74.10
5226;DHT22;2632;51.666;7.146;2024-01-25T11:29:18;10.80;73.40
5226;DHT22;2632;51.666;7.146;2024-01-25T11:31:45;10.60;74.00
5226;DHT22;2632;51.666;7.146;2024-01-25T11:34:13;10.70;74.40
5226;DHT22;2632;51.666;7.146;2024-01-25T11:36:42;10.90;73.50
5226;DHT22;2632;51.666;7.146;2024-01-25T11:39:10;11.00;73.00
5226;DHT22;2632;51.666;7.146;2024-01-25T11:41:38;11.40;72.20
5226;DHT22;2632;51.666;7.146;2024-01-25T11:44:05;11.80;70.50
5226;DHT22;2632;51.666;7.146;2024-01-25T11:46:31;11.60;70.90
5226;DHT22;2632;51.666;7.146;2024-01-25T11:49:03;11.50;71.20
5226;DHT22;2632;51.666;7.146;2024-01-25T11:51:30;11.50;71.00
5226;DHT22;2632;51.666;7.146;2024-01-25T11:53:56;11.60;70.50
5226;DHT22;2632;51.666;7.146;2024-01-25T11:56:33;11.70;70.40
5226;DHT22;2632;51.666;7.146;2024-01-25T11:59:01;11.60;70.40
5226;DHT22;2632;51.666;7.146;2024-01-25T12:01:29;11.30;71.70
5226;DHT22;2632;51.666;7.146;2024-01-25T12:03:56;11.40;71.50
5226;DHT22;2632;51.666;7.146;2024-01-25T12:06:23;11.30;71.80
5226;DHT22;2632;51.666;7.146;2024-01-25T12:08:50;11.10;72.20
5226;DHT22;2632;51.666;7.146;2024-01-25T12:11:18;10.90;73.00
5226;DHT22;2632;51.666;7.146;2024-01-25T12:13:45;10.80;73.10
5226;DHT22;2632;51.666;7.146;2024-01-25T12:16:12;10.70;73.20
5226;DHT22;2632;51.666;7.146;2024-01-25T12:18:41;10.60;73.10
5226;DHT22;2632;51.666;7.146;2024-01-25T12:21:09;10.70;72.80
5226;DHT22;2632;51.666;7.146;2024-01-25T12:23:38;10.70;72.70
5226;DHT22;2632;51.666;7.146;2024-01-25T12:26:06;10.60;73.40
5226;DHT22;2632;51.666;7.146;2024-01-25T12:28:34;10.60;72.70
5226;DHT22;2632;51.666;7.146;2024-01-25T12:31:03;10.60;72.90
5226;DHT22;2632;51.666;7.146;2024-01-25T12:33:30;10.50;73.30
5226;DHT22;2632;51.666;7.146;2024-01-25T12:35:58;10.60;73.20
5226;DHT22;2632;51.666;7.146;2024-01-25T12:38:25;10.70;72.60
5226;DHT22;2632;51.666;7.146;2024-01-25T12:40:52;10.70;72.00
5226;DHT22;2632;51.666;7.146;2024-01-25T12:43:19;10.70;71.50
5226;DHT22;2632;51.666;7.146;2024-01-25T12:45:48;10.80;71.40
5226;DHT22;2632;51.666;7.146;2024-01-25T12:48:17;10.80;71.40
5226;DHT22;2632;51.666;7.146;2024-01-25T12:50:44;11.20;69.70
5226;DHT22;2632;51.666;7.146;2024-01-25T12:53:11;11.50;68.70
5226;DHT22;2632;51.666;7.146;2024-01-25T12:55:38;12.30;66.70
5226;DHT22;2632;51.666;7.146;2024-01-25T12:58:05;12.90;63.90
5226;DHT22;2632;51.666;7.146;2024-01-25T13:00:32;12.50;63.50
5226;DHT22;2632;51.666;7.146;2024-01-25T13:03:00;12.00;64.60
5226;DHT22;2632;51.666;7.146;2024-01-25T13:05:30;11.40;65.20
5226;DHT22;2632;51.666;7.146;2024-01-25T13:08:01;11.10;67.00
5226;DHT22;2632;51.666;7.146;2024-01-25T13:10:28;10.90;67.50
5226;DHT22;2632;51.666;7.146;2024-01-25T13:12:55;10.80;68.20
5226;DHT22;2632;51.666;7.146;2024-01-25T13:15:22;10.80;68.40
5226;DHT22;2632;51.666;7.146;2024-01-25T13:17:49;10.70;68.50
5226;DHT22;2632;51.666;7.146;2024-01-25T13:20:16;10.80;69.00
5226;DHT22;2632;51.666;7.146;2024-01-25T13:22:43;10.90;68.50
5226;DHT22;2632;51.666;7.146;2024-01-25T13:25:10;10.90;68.80
5226;DHT22;2632;51.666;7.146;2024-01-25T13:27:38;10.80;69.20
5226;DHT22;2632;51.666;7.146;2024-01-25T13:30:05;10.90;69.40
5226;DHT22;2632;51.666;7.146;2024-01-25T13:32:32;10.80;69.00
5226;DHT22;2632;51.666;7.146;2024-01-25T13:34:59;10.80;69.80
5226;DHT22;2632;51.666;7.146;2024-01-25T13:37:26;11.00;69.20
5226;DHT22;2632;51.666;7.146;2024-01-25T13:39:52;11.00;69.00
5226;DHT22;2632;51.666;7.146;2024-01-25T13:42:19;11.00;69.20
5226;DHT22;2632;51.666;7.146;2024-01-25T13:44:46;11.00;69.00
5226;DHT22;2632;51.666;7.146;2024-01-25T13:47:13;11.00;69.70
5226;DHT22;2632;51.666;7.146;2024-01-25T13:49:39;11.00;69.90
5226;DHT22;2632;51.666;7.146;2024-01-25T13:52:06;11.00;69.50
5226;DHT22;2632;51.666;7.146;2024-01-25T13:54:33;11.00;69.70
5226;DHT22;2632;51.666;7.146;2024-01-25T13:57:00;11.00;70.10
5226;DHT22;2632;51.666;7.146;2024-01-25T13:59:27;11.10;69.70
5226;DHT22;2632;51.666;7.146;2024-01-25T14:01:54;11.10;69.90
5226;DHT22;2632;51.666;7.146;2024-01-25T14:04:20;11.30;69.60
5226;DHT22;2632;51.666;7.146;2024-01-25T14:06:48;11.30;68.90
5226;DHT22;2632;51.666;7.146;2024-01-25T14:09:15;11.20;69.10
5226;DHT22;2632;51.666;7.146;2024-01-25T14:11:42;11.20;69.60
5226;DHT22;2632;51.666;7.146;2024-01-25T14:14:08;11.20;69.10
5226;DHT22;2632;51.666;7.146;2024-01-25T14:16:36;11.10;69.50
5226;DHT22;2632;51.666;7.146;2024-01-25T14:19:02;11.00;69.70
5226;DHT22;2632;51.666;7.146;2024-01-25T14:21:31;11.00;70.20
5226;DHT22;2632;51.666;7.146;2024-01-25T14:23:58;10.90;70.70
5226;DHT22;2632;51.666;7.146;2024-01-25T14:26:25;10.70;70.50
5226;DHT22;2632;51.666;7.146;2024-01-25T14:28:52;10.60;70.90
5226;DHT22;2632;51.666;7.146;2024-01-25T14:31:18;10.50;71.50
5226;DHT22;2632;51.666;7.146;2024-01-25T14:33:45;10.50;71.90
5226;DHT22;2632;51.666;7.146;2024-01-25T14:36:12;10.50;72.30
5226;DHT22;2632;51.666;7.146;2024-01-25T14:38:40;10.30;72.70
5226;DHT22;2632;51.666;7.146;2024-01-25T14:41:11;10.30;73.70
5226;DHT22;2632;51.666;7.146;2024-01-25T14:43:38;10.30;73.60
5226;DHT22;2632;51.666;7.146;2024-01-25T14:46:07;10.30;73.60
5226;DHT22;2632;51.666;7.146;2024-01-25T14:48:34;10.20;73.70
5226;DHT22;2632;51.666;7.146;2024-01-25T14:51:01;10.20;74.00
5226;DHT22;2632;51.666;7.146;2024-01-25T14:53:28;10.20;74.00
5226;DHT22;2632;51.666;7.146;2024-01-25T14:55:55;10.10;74.40
5226;DHT22;2632;51.666;7.146;2024-01-25T14:58:21;10.00;74.50
5226;DHT22;2632;51.666;7.146;2024-01-25T15:00:50;10.00;74.50
5226;DHT22;2632;51.666;7.146;2024-01-25T15:03:19;10.00;74.40
5226;DHT22;2632;51.666;7.146;2024-01-25T15:05:46;10.00;74.60
5226;DHT22;2632;51.666;7.146;2024-01-25T15:08:13;9.90;74.80
5226;DHT22;2632;51.666;7.146;2024-01-25T15:10:39;9.90;75.00
5226;DHT22;2632;51.666;7.146;2024-01-25T15:13:06;9.80;75.10
5226;DHT22;2632;51.666;7.146;2024-01-25T15:15:33;9.80;75.70
5226;DHT22;2632;51.666;7.146;2024-01-25T15:18:00;9.70;75.90
5226;DHT22;2632;51.666;7.146;2024-01-25T15:20:27;9.70;76.00
5226;DHT22;2632;51.666;7.146;2024-01-25T15:22:54;9.60;76.20
5226;DHT22;2632;51.666;7.146;2024-01-25T15:25:24;9.70;76.60
5226;DHT22;2632;51.666;7.146;2024-01-25T15:27:51;9.60;76.70
5226;DHT22;2632;51.666;7.146;2024-01-25T15:30:18;9.50;77.20
5226;DHT22;2632;51.666;7.146;2024-01-25T15:32:45;9.50;77.40
5226;DHT22;2632;51.666;7.146;2024-01-25T15:35:15;9.50;77.60
5226;DHT22;2632;51.666;7.146;2024-01-25T15:37:41;9.40;78.10
5226;DHT22;2632;51.666;7.146;2024-01-25T15:40:09;9.40;78.10
5226;DHT22;2632;51.666;7.146;2024-01-25T15:42:39;9.40;78.50
5226;DHT22;2632;51.666;7.146;2024-01-25T15:45:06;9.40;78.50
5226;DHT22;2632;51.666;7.146;2024-01-25T15:47:35;9.30;78.70
5226;DHT22;2632;51.666;7.146;2024-01-25T15:50:02;9.30;79.00
5226;DHT22;2632;51.666;7.146;2024-01-25T15:52:32;9.40;79.10
5226;DHT22;2632;51.666;7.146;2024-01-25T15:55:00;9.30;78.90
5226;DHT22;2632;51.666;7.146;2024-01-25T15:57:28;9.30;79.20
5226;DHT22;2632;51.666;7.146;2024-01-25T15:59:59;9.30;79.30
5226;DHT22;2632;51.666;7.146;2024-01-25T16:02:26;9.30;79.20
5226;DHT22;2632;51.666;7.146;2024-01-25T16:04:52;9.30;79.10
5226;DHT22;2632;51.666;7.146;2024-01-25T16:07:19;9.30;79.20
5226;DHT22;2632;51.666;7.146;2024-01-25T16:09:46;9.20;80.10
5226;DHT22;2632;51.666;7.146;2024-01-25T16:12:13;9.20;79.80
5226;DHT22;2632;51.666;7.146;2024-01-25T16:14:40;9.20;79.80